Minot AFB, ND

5:49 AM CDT on October 19, 2019 (GMT -0500)
Minot Air Force Base

Weather History for KMIB - August, 2019

Change the Weather History Date:

Monday, August 12, 2019

  Actual Average Record
Temperature  
Mean Temperature 60 °F -  
Max Temperature 64 °F 79 °F 104 °F (2018)
Min Temperature 57 °F 53 °F 37 °F (2007)
Degree Days  
Heating Degree Days 4    
Growing Degree Days 10 (Base 50)    
Moisture  
Dew Point 58 °F    
Average Humidity 91    
Maximum Humidity 100    
Minimum Humidity 75    
Precipitation  
Precipitation 0.21 in - - ()
Sea Level Pressure  
Sea Level Pressure 29.90 in    
Wind  
Wind Speed 10 mph (ESE)    
Max Wind Speed 16 mph    
Max Gust Speed 21 mph    
Visibility 9 miles    
Events Rain    
Averages and records for this station are not official NWS values.
T = Trace of Precipitation, MM = Missing Value Source: NWS Daily Summary

Daily Weather History Graph

Daily Weather History Graph

Search for Another Location

Airport or City:

Astronomy

Aug. 12, 2019 Rise Set
Actual Time 6:34 AM CDT 9:05 PM CDT
Civil Twilight 5:59 AM CDT 9:40 PM CDT
Nautical Twilight 5:15 AM CDT 10:24 PM CDT
Astronomical Twilight 4:24 AM CDT 11:14 PM CDT
Moon 7:48 PM CDT (8/12) 3:33 AM CDT (8/12)
Length of Visible Light 15h 40m
Length of Day
14h 30m
Waxing Gibbous, 93% of the Moon is Illuminated
Aug 12
Waxing Gibbous
Aug 15
Full
Aug 23
Last Quarter
Aug 30
New
Sep 5
First Quarter

Hourly Weather History & Observations

Time (CDT) Temp. Dew Point Humidity Pressure Visibility Wind Dir Wind Speed Gust Speed Precip Events Conditions
12:56 AM 64.8 °F 56.7 °F 75% 29.94 in 10.0 mi ESE 10.4 mph - N/A   Mostly Cloudy
1:56 AM 63.1 °F 56.8 °F 80% 29.95 in 10.0 mi East 9.2 mph - N/A   Overcast
2:56 AM 63.5 °F 57.2 °F 80% 29.95 in 10.0 mi ESE 6.9 mph - N/A   Overcast
3:56 AM 63.1 °F 56.8 °F 80% 29.93 in 10.0 mi ESE 8.1 mph - N/A   Overcast
4:56 AM 63.0 °F 57.0 °F 81% 29.91 in 10.0 mi East 9.2 mph - N/A   Overcast
4:57 AM 62.6 °F 57.2 °F 82% 29.91 in 10.0 mi East 10.4 mph - N/A   Light Drizzle
5:06 AM 62.6 °F 57.2 °F 82% 29.91 in 10.0 mi East 10.4 mph - N/A   Overcast
5:12 AM 62.6 °F 59.0 °F 88% 29.91 in 10.0 mi East 10.4 mph - N/A   Light Drizzle
5:22 AM 62.6 °F 59.0 °F 88% 29.90 in 10.0 mi East 8.1 mph - N/A Rain Light Rain
5:40 AM 60.8 °F 59.0 °F 94% 29.90 in 10.0 mi East 9.2 mph - N/A   Overcast
5:56 AM 61.5 °F 58.3 °F 89% 29.90 in 10.0 mi ESE 9.2 mph - 0.00 in   Overcast
6:16 AM 60.8 °F 57.2 °F 88% 29.89 in 10.0 mi East 12.7 mph - N/A   Overcast
6:56 AM 61.2 °F 55.6 °F 82% 29.89 in 10.0 mi SE 12.7 mph 20.7 mph N/A   Overcast
7:27 AM 60.8 °F 53.6 °F 77% 29.89 in 10.0 mi ESE 13.8 mph - N/A Rain Light Rain
7:47 AM 59.0 °F 55.4 °F 88% 29.90 in 3.0 mi ESE 10.4 mph - N/A Rain Light Rain
7:53 AM 59.0 °F 55.4 °F 88% 29.89 in 8.0 mi ESE 8.1 mph - N/A   Overcast
7:56 AM 58.3 °F 55.4 °F 90% 29.89 in 9.0 mi ESE 8.1 mph - 0.06 in   Overcast
8:06 AM 59.0 °F 55.4 °F 88% 29.89 in 10.0 mi ESE 11.5 mph - N/A Rain Light Rain
8:24 AM 59.0 °F 55.4 °F 88% 29.90 in 10.0 mi ESE 11.5 mph - N/A   Overcast
8:56 AM 58.5 °F 56.1 °F 92% 29.90 in 10.0 mi ESE 10.4 mph - 0.01 in   Overcast
9:56 AM 59.2 °F 56.8 °F 92% 29.89 in 10.0 mi ESE 9.2 mph - N/A   Overcast
10:15 AM 59.0 °F 57.2 °F 94% 29.89 in 7.0 mi ESE 8.1 mph - N/A   Light Drizzle
10:20 AM 59.0 °F 57.2 °F 94% 29.89 in 4.0 mi SE 8.1 mph - N/A Rain Light Rain
10:30 AM 59.0 °F 57.2 °F 94% 29.91 in 5.0 mi SE 6.9 mph - N/A Rain Light Rain
10:35 AM 59.0 °F 57.2 °F 94% 29.91 in 4.0 mi SE 8.1 mph - N/A Rain Light Rain
10:40 AM 59.0 °F 57.2 °F 94% 29.91 in 4.0 mi SE 9.2 mph - N/A Rain Light Rain
10:45 AM 59.0 °F 57.2 °F 94% 29.91 in 5.0 mi SE 10.4 mph - N/A Rain Light Rain
10:50 AM 59.0 °F 57.2 °F 94% 29.91 in 5.0 mi SE 11.5 mph - N/A Rain Light Rain
10:56 AM 59.2 °F 56.8 °F 92% 29.91 in 4.0 mi SE 8.1 mph - 0.03 in   Drizzle
11:16 AM 59.0 °F 57.2 °F 94% 29.91 in 7.0 mi ESE 10.4 mph - N/A Rain Light Rain
11:21 AM 59.0 °F 57.2 °F 94% 29.91 in 10.0 mi SE 10.4 mph - N/A Rain Light Rain
11:30 AM 59.0 °F 57.2 °F 94% 29.91 in 10.0 mi SE 10.4 mph - N/A   Overcast
11:40 AM 59.0 °F 59.0 °F 100% 29.91 in 10.0 mi ESE 10.4 mph - N/A   Overcast
11:50 AM 59.0 °F 59.0 °F 100% 29.91 in 8.0 mi SE 10.4 mph - N/A   Light Drizzle
11:56 AM 59.5 °F 58.5 °F 96% 29.91 in 8.0 mi ESE 10.4 mph - 0.02 in Rain Light Rain
12:15 PM 59.0 °F 59.0 °F 100% 29.91 in 10.0 mi East 8.1 mph - N/A   Overcast
12:41 PM 60.8 °F 59.0 °F 94% 29.91 in 9.0 mi East 6.9 mph - N/A   Overcast
12:56 PM 60.1 °F 59.2 °F 97% 29.91 in 4.0 mi ENE 5.8 mph - 0.00 in   Overcast
1:05 PM 60.8 °F 59.0 °F 94% 29.91 in 7.0 mi East 6.9 mph - N/A   Light Drizzle
1:30 PM 60.8 °F 59.0 °F 94% 29.89 in 10.0 mi East 8.1 mph - N/A   Overcast
1:56 PM 61.3 °F 60.4 °F 97% 29.89 in 10.0 mi East 11.5 mph - 0.00 in   Overcast
2:48 PM 62.6 °F 60.8 °F 94% 29.89 in 10.0 mi ENE 10.4 mph - N/A   Overcast
2:56 PM 62.2 °F 59.9 °F 92% 29.89 in 10.0 mi East 10.4 mph - N/A   Overcast
2:57 PM 62.6 °F 59.0 °F 88% 29.89 in 10.0 mi East 11.5 mph - N/A   Overcast
3:22 PM 62.6 °F 59.0 °F 88% 29.89 in 10.0 mi East 11.5 mph - N/A   Overcast
3:42 PM 62.6 °F 59.0 °F 88% 29.89 in 10.0 mi ENE 12.7 mph - N/A   Overcast
3:56 PM 60.8 °F 57.6 °F 89% 29.89 in 10.0 mi ENE 15.0 mph - N/A   Overcast
4:07 PM 60.8 °F 57.2 °F 88% 29.89 in 10.0 mi ENE 11.5 mph - N/A   Overcast
4:56 PM 61.0 °F 57.4 °F 88% 29.89 in 10.0 mi East 13.8 mph - N/A   Overcast
5:31 PM 60.8 °F 57.2 °F 88% 29.89 in 10.0 mi East 12.7 mph - N/A   Overcast
6:13 PM 60.8 °F 57.2 °F 88% 29.89 in 10.0 mi East 13.8 mph - N/A   Overcast
6:56 PM 60.3 °F 56.7 °F 88% 29.91 in 10.0 mi East 9.2 mph - N/A   Overcast
7:00 PM 60.8 °F 57.2 °F 88% 29.91 in 10.0 mi East 9.2 mph - N/A Rain Light Rain
7:25 PM 59.0 °F 57.2 °F 94% 29.89 in 10.0 mi East 9.2 mph - N/A Rain Light Rain
7:50 PM 59.0 °F 57.2 °F 94% 29.89 in 10.0 mi ENE 11.5 mph - N/A Rain Light Rain
7:56 PM 58.1 °F 56.7 °F 95% 29.89 in 10.0 mi East 10.4 mph - 0.06 in Rain Light Rain
8:03 PM 59.0 °F 57.2 °F 94% 29.90 in 10.0 mi East 10.4 mph - N/A Rain Light Rain
8:56 PM 57.9 °F 57.0 °F 97% 29.88 in 10.0 mi East 12.7 mph - 0.03 in   Overcast
9:21 PM 57.2 °F 57.2 °F 100% 29.87 in 10.0 mi East 16.1 mph - N/A   Overcast
10:26 PM 57.2 °F 57.2 °F 100% 29.89 in 10.0 mi ESE 10.4 mph - N/A   Overcast
10:56 PM 57.9 °F 57.4 °F 98% 29.88 in 10.0 mi ESE 9.2 mph - N/A   Overcast
11:45 PM 59.0 °F 59.0 °F 100% 29.87 in 10.0 mi ESE 6.9 mph - N/A Rain Light Rain
11:56 PM 58.6 °F 58.3 °F 99% 29.88 in 10.0 mi Calm Calm - 0.00 in Rain Light Rain